Wetterdaten: Woche 08.02.21 - 14.02.21 (KW6)
Datum Zeit Temp. A. Feuchte A. Luftdruck Regen Wind Richtung Taupunkt Windchill Windben
08.02.2021 00:00 0,4 C 84 % 994,3 hPa 0,0 l/m 0,0 km/h N -2,0 C 0,4 C 4,0 km/h
08.02.2021 01:00 0,9 C 84 % 994,2 hPa 0,0 l/m 0,8 km/h N -1,5 C 0,9 C 10,4 km/h
08.02.2021 02:00 0,3 C 84 % 994,9 hPa 0,0 l/m 2,4 km/h N -2,1 C 0,3 C 12,1 km/h
08.02.2021 03:00 -0,6 C 84 % 994,9 hPa 0,0 l/m 5,6 km/h N -3,0 C -0,6 C 16,9 km/h
08.02.2021 04:00 -0,6 C 84 % 994,9 hPa 0,0 l/m 4,0 km/h N -3,0 C -0,6 C 16,1 km/h
08.02.2021 05:00 -0,2 C 84 % 995,0 hPa 0,0 l/m 2,4 km/h N -2,5 C -0,2 C 8,0 km/h
08.02.2021 06:00 0,6 C 84 % 994,8 hPa 0,0 l/m 1,1 km/h N -1,8 C 0,6 C 6,5 km/h
08.02.2021 07:00 1,5 C 84 % 994,9 hPa 0,0 l/m 1,2 km/h N -0,9 C 1,5 C 8,0 km/h
08.02.2021 08:00 2,8 C 83 % 995,5 hPa 0,3 l/m 2,0 km/h N 0,2 C 2,8 C 12,1 km/h
08.02.2021 09:00 3,1 C 82 % 995,8 hPa 0,0 l/m 3,1 km/h N 0,4 C 3,1 C 15,3 km/h
08.02.2021 10:00 3,6 C 82 % 995,9 hPa 0,0 l/m 2,9 km/h N 0,8 C 3,6 C 13,3 km/h
08.02.2021 11:00 3,6 C 82 % 996,0 hPa 0,0 l/m 1,3 km/h N 0,8 C 3,6 C 10,1 km/h
08.02.2021 12:00 2,1 C 82 % 996,0 hPa 0,0 l/m 1,6 km/h N -0,7 C 2,1 C 11,7 km/h
08.02.2021 13:00 1,3 C 83 % 995,9 hPa 0,0 l/m 0,9 km/h N -1,3 C 1,3 C 9,3 km/h
08.02.2021 14:00 1,3 C 83 % 996,5 hPa 0,0 l/m 0,6 km/h N -1,3 C 1,3 C 6,4 km/h
08.02.2021 15:00 1,3 C 83 % 997,1 hPa 0,0 l/m 0,7 km/h N -1,3 C 1,3 C 8,0 km/h
08.02.2021 16:00 0,8 C 83 % 997,4 hPa 0,3 l/m 0,1 km/h N -1,8 C 0,8 C 4,8 km/h
08.02.2021 17:00 0,5 C 82 % 997,8 hPa 0,0 l/m 0,0 km/h N -2,1 C 0,5 C 0,4 km/h
08.02.2021 18:00 0,3 C 82 % 998,6 hPa 0,0 l/m 0,0 km/h N -2,4 C 0,3 C 0,0 km/h
08.02.2021 19:00 -0,0 C 82 % 999,0 hPa 0,0 l/m 0,0 km/h N -2,7 C -0,0 C 0,0 km/h
08.02.2021 20:00 -0,3 C 82 % 999,4 hPa 0,0 l/m 0,0 km/h N -3,0 C -0,3 C 0,0 km/h
08.02.2021 21:00 -0,5 C 82 % 999,6 hPa 0,0 l/m 0,0 km/h N -3,2 C -0,5 C 0,0 km/h
08.02.2021 22:00 -0,7 C 82 % 999,7 hPa 0,0 l/m 0,0 km/h N -3,4 C -0,7 C 0,0 km/h
08.02.2021 23:00 -0,8 C 82 % 999,7 hPa 0,0 l/m 0,0 km/h N -3,5 C -0,8 C 0,0 km/h
09.02.2021 00:00 -0,9 C 82 % 1000,2 hPa 0,0 l/m 0,0 km/h N -3,6 C -0,9 C 0,0 km/h
09.02.2021 01:00 -1,0 C 82 % 1000,0 hPa 0,0 l/m 0,0 km/h N -3,6 C -1,0 C 0,0 km/h
09.02.2021 02:00 -0,8 C 82 % 999,6 hPa 0,0 l/m 0,0 km/h N -3,5 C -0,8 C 0,0 km/h
09.02.2021 03:00 -0,7 C 82 % 999,4 hPa 0,0 l/m 0,0 km/h N -3,4 C -0,7 C 0,0 km/h
09.02.2021 04:00 -0,7 C 82 % 999,6 hPa 0,0 l/m 0,0 km/h N -3,4 C -0,7 C 0,0 km/h
09.02.2021 05:00 -0,4 C 82 % 1000,1 hPa 0,0 l/m 0,1 km/h N -3,1 C -0,4 C 2,0 km/h
09.02.2021 06:00 0,1 C 82 % 1000,5 hPa 0,0 l/m 0,0 km/h N -2,6 C 0,1 C 0,4 km/h
09.02.2021 07:00 0,3 C 82 % 1000,9 hPa 0,0 l/m 0,0 km/h N -2,4 C 0,3 C 2,4 km/h
09.02.2021 08:00 0,3 C 82 % 1001,2 hPa 0,0 l/m 0,0 km/h N -2,4 C 0,3 C 0,0 km/h
09.02.2021 09:00 0,8 C 82 % 1001,6 hPa 0,3 l/m 0,0 km/h N -1,9 C 0,8 C 0,0 km/h
09.02.2021 10:00 1,5 C 82 % 1001,8 hPa 0,0 l/m 0,0 km/h N -1,2 C 1,5 C 0,0 km/h
09.02.2021 11:00 2,0 C 82 % 1002,0 hPa 0,0 l/m 0,0 km/h N -0,8 C 2,0 C 0,8 km/h
09.02.2021 12:00 2,0 C 82 % 1001,9 hPa 0,0 l/m 0,0 km/h N -0,7 C 2,0 C 0,0 km/h
09.02.2021 13:00 2,2 C 82 % 1001,9 hPa 0,3 l/m 0,0 km/h N -0,6 C 2,2 C 0,0 km/h
09.02.2021 14:00 2,3 C 82 % 1002,2 hPa 0,0 l/m 0,0 km/h N -0,4 C 2,3 C 0,0 km/h
09.02.2021 15:00 2,2 C 82 % 1002,6 hPa 0,0 l/m 0,3 km/h N -0,6 C 2,2 C 2,8 km/h
09.02.2021 16:00 2,0 C 83 % 1003,0 hPa 0,0 l/m 0,6 km/h N -0,6 C 2,0 C 5,2 km/h
09.02.2021 17:00 1,7 C 82 % 1003,9 hPa 0,0 l/m 1,2 km/h N -1,1 C 1,7 C 6,0 km/h
09.02.2021 18:00 1,3 C 79 % 1004,7 hPa 0,0 l/m 0,7 km/h N -1,8 C 1,3 C 5,2 km/h
09.02.2021 19:00 1,3 C 79 % 1005,0 hPa 0,0 l/m 0,0 km/h N -1,9 C 1,3 C 0,0 km/h
09.02.2021 20:00 1,2 C 80 % 1005,3 hPa 0,0 l/m 0,0 km/h N -1,9 C 1,2 C 0,0 km/h
09.02.2021 21:00 0,9 C 81 % 1005,5 hPa 0,0 l/m 0,0 km/h N -2,0 C 0,9 C 0,0 km/h
09.02.2021 22:00 0,4 C 81 % 1005,6 hPa 0,0 l/m 0,0 km/h N -2,4 C 0,4 C 0,0 km/h
09.02.2021 23:00 0,5 C 83 % 1005,8 hPa 0,0 l/m 0,0 km/h N -2,2 C 0,5 C 0,0 km/h
10.02.2021 00:00 0,5 C 83 % 1005,6 hPa 0,0 l/m 0,0 km/h N -2,0 C 0,5 C 0,0 km/h
10.02.2021 01:00 0,3 C 83 % 1005,4 hPa 0,0 l/m 0,0 km/h N -2,2 C 0,3 C 0,0 km/h
10.02.2021 02:00 -0,2 C 83 % 1004,9 hPa 0,0 l/m 0,0 km/h N -2,7 C -0,2 C 0,0 km/h
10.02.2021 03:00 -0,4 C 83 % 1004,0 hPa 0,0 l/m 0,0 km/h N -2,9 C -0,4 C 0,0 km/h
10.02.2021 04:00 -0,3 C 83 % 1003,6 hPa 0,0 l/m 0,0 km/h N -2,9 C -0,3 C 0,0 km/h
10.02.2021 05:00 -0,4 C 83 % 1003,1 hPa 0,0 l/m 0,0 km/h N -3,0 C -0,4 C 0,0 km/h
10.02.2021 06:00 -0,3 C 83 % 1002,8 hPa 0,0 l/m 0,0 km/h N -2,9 C -0,3 C 0,4 km/h
10.02.2021 07:00 -0,2 C 83 % 1002,7 hPa 0,0 l/m 0,0 km/h N -2,7 C -0,2 C 0,0 km/h
10.02.2021 08:00 0,1 C 83 % 1002,6 hPa 0,0 l/m 0,1 km/h N -2,5 C 0,1 C 2,0 km/h
10.02.2021 09:00 0,5 C 83 % 1002,5 hPa 0,0 l/m 0,0 km/h N -2,1 C 0,5 C 0,0 km/h
10.02.2021 10:00 0,8 C 83 % 1002,3 hPa 0,0 l/m 0,0 km/h N -1,8 C 0,8 C 0,0 km/h
10.02.2021 11:00 0,6 C 83 % 1002,2 hPa 0,0 l/m 0,0 km/h N -2,0 C 0,6 C 0,4 km/h
10.02.2021 12:00 0,4 C 83 % 1001,9 hPa 0,3 l/m 0,0 km/h N -2,2 C 0,4 C 0,0 km/h
10.02.2021 13:00 0,2 C 82 % 1001,8 hPa 0,0 l/m 0,2 km/h N -2,5 C 0,2 C 3,2 km/h
10.02.2021 14:00 0,3 C 82 % 1002,2 hPa 0,3 l/m 0,2 km/h N -2,5 C 0,3 C 2,0 km/h
10.02.2021 15:00 0,4 C 82 % 1002,8 hPa 0,3 l/m 0,5 km/h N -2,3 C 0,4 C 3,2 km/h
10.02.2021 16:00 0,4 C 82 % 1003,7 hPa 0,3 l/m 1,7 km/h N -2,3 C 0,4 C 6,8 km/h
10.02.2021 17:00 0,1 C 82 % 1004,9 hPa 0,0 l/m 3,9 km/h N -2,6 C 0,1 C 12,1 km/h
10.02.2021 18:00 -0,3 C 82 % 1005,8 hPa 0,0 l/m 4,4 km/h N -2,9 C -0,3 C 14,9 km/h
10.02.2021 19:00 -0,6 C 83 % 1006,5 hPa 0,0 l/m 6,9 km/h N -3,2 C -1,1 C 20,1 km/h
10.02.2021 20:00 -1,5 C 83 % 1007,6 hPa 0,0 l/m 8,3 km/h N -3,9 C -3,4 C 24,5 km/h
10.02.2021 21:00 -2,4 C 83 % 1008,8 hPa 0,0 l/m 7,0 km/h N -4,8 C -3,3 C 22,9 km/h
10.02.2021 22:00 -3,2 C 82 % 1009,6 hPa 0,0 l/m 6,7 km/h N -5,8 C -3,6 C 20,5 km/h
10.02.2021 23:00 -3,7 C 81 % 1010,7 hPa 0,0 l/m 6,3 km/h N -6,4 C -3,8 C 20,5 km/h
11.02.2021 00:00 -4,3 C 80 % 1011,6 hPa 0,0 l/m 6,0 km/h N -7,3 C -4,6 C 24,1 km/h
11.02.2021 01:00 -4,9 C 79 % 1012,3 hPa 0,0 l/m 7,5 km/h N -8,1 C -7,2 C 23,7 km/h
11.02.2021 02:00 -5,4 C 78 % 1013,2 hPa 0,0 l/m 12,2 km/h N -8,7 C -11,3 C 27,0 km/h
11.02.2021 03:00 -5,8 C 78 % 1014,5 hPa 0,0 l/m 11,1 km/h N -9,0 C -10,8 C 24,1 km/h
11.02.2021 04:00 -6,2 C 78 % 1015,3 hPa 0,0 l/m 11,6 km/h N -9,5 C -11,8 C 26,1 km/h
11.02.2021 05:00 -6,8 C 82 % 1016,3 hPa 0,0 l/m 10,6 km/h N -9,4 C -11,5 C 24,1 km/h
11.02.2021 06:00 -7,1 C 83 % 1017,3 hPa 0,0 l/m 9,8 km/h N -9,5 C -11,1 C 24,5 km/h
11.02.2021 07:00 -7,2 C 82 % 1018,8 hPa 0,0 l/m 11,0 km/h N -9,8 C -12,3 C 27,3 km/h
11.02.2021 08:00 -6,9 C 76 % 1020,0 hPa 0,0 l/m 13,7 km/h N -10,4 C -14,4 C 31,0 km/h
11.02.2021 09:00 -6,5 C 70 % 1021,0 hPa 0,0 l/m 14,1 km/h N -11,1 C -14,2 C 29,0 km/h
11.02.2021 10:00 -6,2 C 70 % 1021,4 hPa 0,0 l/m 15,9 km/h N -10,8 C -15,1 C 34,6 km/h
11.02.2021 11:00 -5,5 C 69 % 1022,0 hPa 0,0 l/m 15,7 km/h N -10,3 C -14,1 C 33,8 km/h
11.02.2021 12:00 -4,8 C 63 % 1022,1 hPa 0,0 l/m 16,4 km/h N -10,7 C -13,7 C 34,2 km/h
11.02.2021 13:00 -3,9 C 59 % 1021,9 hPa 0,0 l/m 15,6 km/h N -10,7 C -12,1 C 31,4 km/h
11.02.2021 14:00 -3,9 C 67 % 1022,0 hPa 0,0 l/m 16,5 km/h N -9,2 C -12,7 C 35,4 km/h
11.02.2021 15:00 -5,0 C 80 % 1023,1 hPa 0,0 l/m 13,8 km/h N -7,9 C -12,1 C 30,6 km/h
11.02.2021 16:00 -4,8 C 79 % 1024,0 hPa 0,0 l/m 13,0 km/h N -7,9 C -11,3 C 30,2 km/h
11.02.2021 17:00 -5,0 C 80 % 1025,0 hPa 0,0 l/m 11,0 km/h N -7,8 C -9,9 C 25,8 km/h
11.02.2021 18:00 -5,1 C 81 % 1026,0 hPa 0,0 l/m 10,4 km/h N -7,9 C -9,4 C 24,1 km/h
11.02.2021 19:00 -5,6 C 83 % 1026,5 hPa 0,0 l/m 9,1 km/h N -8,0 C -8,5 C 21,7 km/h
11.02.2021 20:00 -5,2 C 83 % 1027,2 hPa 0,0 l/m 10,9 km/h N -7,7 C -10,1 C 27,8 km/h
11.02.2021 21:00 -4,8 C 75 % 1027,6 hPa 0,0 l/m 9,5 km/h N -8,6 C -8,3 C 26,5 km/h
11.02.2021 22:00 -4,9 C 76 % 1028,4 hPa 0,0 l/m 8,2 km/h N -8,4 C -6,9 C 20,1 km/h
11.02.2021 23:00 -5,1 C 78 % 1028,9 hPa 0,0 l/m 8,8 km/h N -8,3 C -7,9 C 21,3 km/h
12.02.2021 00:00 -5,9 C 78 % 1029,7 hPa 0,0 l/m 8,2 km/h N -9,1 C -8,1 C 20,1 km/h
12.02.2021 01:00 -7,2 C 70 % 1030,2 hPa 0,0 l/m 6,6 km/h N -11,8 C -8,4 C 18,5 km/h
12.02.2021 02:00 -7,7 C 66 % 1030,4 hPa 0,0 l/m 4,6 km/h N -12,9 C -7,7 C 13,3 km/h
12.02.2021 03:00 -7,7 C 65 % 1030,4 hPa 0,0 l/m 4,9 km/h N -13,0 C -7,7 C 13,7 km/h
12.02.2021 04:00 -7,6 C 65 % 1030,5 hPa 0,0 l/m 6,6 km/h N -12,9 C -7,9 C 15,3 km/h
12.02.2021 05:00 -7,6 C 65 % 1030,6 hPa 0,0 l/m 5,9 km/h N -13,0 C -8,1 C 13,7 km/h
12.02.2021 06:00 -7,2 C 64 % 1030,7 hPa 0,0 l/m 7,4 km/h N -12,8 C -8,4 C 17,3 km/h
12.02.2021 07:00 -6,7 C 63 % 1031,3 hPa 0,0 l/m 8,3 km/h N -12,5 C -9,0 C 19,7 km/h
12.02.2021 08:00 -6,4 C 63 % 1031,7 hPa 0,0 l/m 6,6 km/h N -12,2 C -7,4 C 16,5 km/h
12.02.2021 09:00 -5,9 C 63 % 1031,8 hPa 0,0 l/m 6,7 km/h N -11,9 C -6,9 C 16,5 km/h
12.02.2021 10:00 -5,2 C 62 % 1032,1 hPa 0,0 l/m 6,7 km/h N -11,2 C -5,6 C 16,5 km/h
12.02.2021 11:00 -4,8 C 59 % 1032,3 hPa 0,0 l/m 6,9 km/h N -11,6 C -5,6 C 16,9 km/h
12.02.2021 12:00 -4,4 C 59 % 1032,1 hPa 0,0 l/m 5,2 km/h N -11,3 C -4,4 C 14,9 km/h
12.02.2021 13:00 -3,8 C 57 % 1032,1 hPa 0,0 l/m 5,5 km/h N -11,1 C -3,8 C 16,9 km/h
12.02.2021 14:00 -3,5 C 56 % 1032,0 hPa 0,0 l/m 3,4 km/h N -11,0 C -3,5 C 14,1 km/h
12.02.2021 15:00 -3,4 C 56 % 1032,1 hPa 0,0 l/m 3,1 km/h N -10,9 C -3,4 C 14,5 km/h
12.02.2021 16:00 -4,3 C 57 % 1032,3 hPa 0,0 l/m 4,5 km/h N -11,5 C -4,3 C 13,7 km/h
12.02.2021 17:00 -4,8 C 60 % 1032,4 hPa 0,0 l/m 2,5 km/h N -11,4 C -4,8 C 10,5 km/h
12.02.2021 18:00 -5,3 C 63 % 1032,8 hPa 0,0 l/m 3,0 km/h N -11,2 C -5,3 C 9,3 km/h
12.02.2021 19:00 -5,5 C 65 % 1032,9 hPa 0,0 l/m 4,4 km/h N -11,0 C -5,5 C 10,9 km/h
12.02.2021 20:00 -5,6 C 66 % 1033,6 hPa 0,0 l/m 4,2 km/h N -10,9 C -5,6 C 13,3 km/h
12.02.2021 21:00 -5,8 C 69 % 1034,2 hPa 0,0 l/m 6,7 km/h N -10,5 C -6,4 C 18,1 km/h
12.02.2021 22:00 -6,7 C 71 % 1034,5 hPa 0,0 l/m 4,3 km/h N -11,1 C -6,7 C 13,3 km/h
12.02.2021 23:00 -7,4 C 73 % 1034,8 hPa 0,0 l/m 2,0 km/h N -11,4 C -7,4 C 7,2 km/h
13.02.2021 00:00 -7,7 C 75 % 1035,1 hPa 0,0 l/m 2,6 km/h N -11,4 C -7,7 C 8,0 km/h
13.02.2021 01:00 -7,8 C 76 % 1035,1 hPa 0,0 l/m 3,6 km/h N -11,3 C -7,8 C 9,3 km/h
13.02.2021 02:00 -7,4 C 76 % 1035,0 hPa 0,0 l/m 4,9 km/h N -10,9 C -7,4 C 12,5 km/h
13.02.2021 03:00 -7,2 C 74 % 1034,9 hPa 0,0 l/m 4,9 km/h N -11,0 C -7,2 C 12,5 km/h
13.02.2021 04:00 -7,1 C 72 % 1035,2 hPa 0,0 l/m 4,9 km/h N -11,3 C -7,1 C 12,1 km/h
13.02.2021 05:00 -7,3 C 71 % 1035,6 hPa 0,0 l/m 4,8 km/h N -11,7 C -7,3 C 13,3 km/h
13.02.2021 06:00 -7,8 C 72 % 1036,1 hPa 0,0 l/m 5,0 km/h N -12,0 C -7,9 C 13,3 km/h
13.02.2021 07:00 -8,3 C 74 % 1036,7 hPa 0,0 l/m 5,3 km/h N -12,0 C -8,3 C 13,3 km/h
13.02.2021 08:00 -7,9 C 75 % 1037,3 hPa 0,0 l/m 6,6 km/h N -11,6 C -8,5 C 17,3 km/h
13.02.2021 09:00 -7,0 C 74 % 1037,6 hPa 0,0 l/m 7,1 km/h N -10,9 C -8,0 C 16,1 km/h
13.02.2021 10:00 -5,7 C 70 % 1037,4 hPa 0,0 l/m 7,6 km/h N -10,3 C -7,1 C 18,5 km/h
13.02.2021 11:00 -4,4 C 65 % 1037,4 hPa 0,0 l/m 9,2 km/h N -10,1 C -7,4 C 21,7 km/h
13.02.2021 12:00 -3,3 C 61 % 1037,2 hPa 0,0 l/m 9,4 km/h N -9,8 C -6,4 C 19,7 km/h
13.02.2021 13:00 -2,2 C 60 % 1036,6 hPa 0,0 l/m 8,8 km/h N -8,9 C -4,7 C 19,3 km/h
13.02.2021 14:00 -1,7 C 62 % 1036,3 hPa 0,0 l/m 9,2 km/h N -7,9 C -4,5 C 22,5 km/h
13.02.2021 15:00 -1,8 C 65 % 1036,5 hPa 0,0 l/m 8,0 km/h N -7,5 C -3,5 C 19,7 km/h
13.02.2021 16:00 -2,3 C 68 % 1036,6 hPa 0,0 l/m 8,2 km/h N -7,3 C -4,1 C 20,1 km/h
13.02.2021 17:00 -2,8 C 71 % 1036,8 hPa 0,0 l/m 9,5 km/h N -7,4 C -6,0 C 20,1 km/h
13.02.2021 18:00 -2,7 C 73 % 1037,4 hPa 0,0 l/m 9,2 km/h N -6,9 C -5,7 C 20,5 km/h
13.02.2021 19:00 -2,7 C 73 % 1037,5 hPa 0,0 l/m 8,9 km/h N -6,8 C -5,4 C 21,3 km/h
13.02.2021 20:00 -2,7 C 73 % 1038,0 hPa 0,0 l/m 7,9 km/h N -6,9 C -4,4 C 21,3 km/h
13.02.2021 21:00 -2,9 C 74 % 1038,6 hPa 0,0 l/m 7,0 km/h N -6,9 C -3,7 C 20,1 km/h
13.02.2021 22:00 -3,1 C 74 % 1038,8 hPa 0,0 l/m 7,7 km/h N -7,0 C -4,5 C 18,9 km/h
13.02.2021 23:00 -3,3 C 73 % 1039,1 hPa 0,0 l/m 7,6 km/h N -7,5 C -4,7 C 19,7 km/h
14.02.2021 00:00 -3,8 C 74 % 1039,2 hPa 0,0 l/m 3,8 km/h N -7,7 C -3,8 C 11,7 km/h
14.02.2021 01:00 -3,9 C 77 % 1039,0 hPa 0,0 l/m 6,8 km/h N -7,3 C -4,6 C 19,7 km/h
14.02.2021 02:00 -4,1 C 78 % 1038,7 hPa 0,0 l/m 9,1 km/h N -7,4 C -7,0 C 19,3 km/h
14.02.2021 03:00 -4,2 C 77 % 1038,6 hPa 0,0 l/m 9,9 km/h N -7,6 C -7,9 C 22,5 km/h
14.02.2021 04:00 -4,8 C 78 % 1038,7 hPa 0,0 l/m 9,4 km/h N -8,1 C -8,1 C 22,9 km/h
14.02.2021 05:00 -5,2 C 77 % 1038,8 hPa 0,0 l/m 8,8 km/h N -8,6 C -8,0 C 20,9 km/h
14.02.2021 06:00 -5,3 C 77 % 1039,0 hPa 0,0 l/m 9,6 km/h N -8,7 C -8,7 C 22,5 km/h
14.02.2021 07:00 -5,4 C 76 % 1039,3 hPa 0,0 l/m 6,1 km/h N -8,9 C -5,6 C 20,1 km/h
14.02.2021 08:00 -4,9 C 74 % 1040,2 hPa 0,0 l/m 6,7 km/h N -8,8 C -5,5 C 16,9 km/h
14.02.2021 09:00 -3,8 C 69 % 1040,5 hPa 0,0 l/m 9,4 km/h N -8,7 C -7,1 C 22,9 km/h
14.02.2021 10:00 -2,6 C 62 % 1040,4 hPa 0,0 l/m 9,0 km/h N -8,8 C -5,4 C 20,1 km/h
14.02.2021 11:00 -1,6 C 60 % 1040,4 hPa 0,0 l/m 8,5 km/h N -8,4 C -3,8 C 20,1 km/h
14.02.2021 12:00 -0,8 C 59 % 1040,0 hPa 0,0 l/m 9,1 km/h N -7,8 C -3,6 C 22,1 km/h
14.02.2021 13:00 -0,0 C 56 % 1039,7 hPa 0,0 l/m 7,7 km/h N -7,7 C -1,5 C 19,3 km/h
14.02.2021 14:00 0,7 C 52 % 1039,2 hPa 0,0 l/m 3,8 km/h N -8,0 C 0,7 C 16,9 km/h
14.02.2021 15:00 0,9 C 52 % 1039,3 hPa 0,0 l/m 3,9 km/h N -7,9 C 0,9 C 19,3 km/h
14.02.2021 16:00 0,5 C 51 % 1039,2 hPa 0,0 l/m 3,0 km/h N -8,5 C 0,5 C 13,3 km/h
14.02.2021 17:00 -0,3 C 53 % 1039,4 hPa 0,0 l/m 0,4 km/h N -8,8 C -0,3 C 6,0 km/h
14.02.2021 18:00 -1,4 C 58 % 1039,8 hPa 0,0 l/m 0,3 km/h N -8,7 C -1,4 C 3,6 km/h
14.02.2021 19:00 -1,8 C 63 % 1040,0 hPa 0,0 l/m 0,1 km/h N -7,9 C -1,8 C 3,2 km/h
14.02.2021 20:00 -2,0 C 64 % 1040,3 hPa 0,0 l/m 1,3 km/h N -7,8 C -2,0 C 8,8 km/h
14.02.2021 21:00 -2,5 C 65 % 1040,6 hPa 0,0 l/m 0,3 km/h N -8,2 C -2,5 C 4,4 km/h
14.02.2021 22:00 -3,0 C 65 % 1040,4 hPa 0,0 l/m 0,5 km/h N -8,7 C -3,0 C 6,0 km/h
14.02.2021 23:00 -3,6 C 68 % 1040,2 hPa 0,0 l/m 0,9 km/h N -8,7 C -3,6 C 7,6 km/h
Min-Datum _ 13.02.21 14.02.21 08.02.21 - 08.02.21 - 12.02.21 11.02.21 08.02.21
_ Min-Zeit 07:45 16:30 01:30 - 00:00 - 03:30 10:45 06:45
Minimum _ -8,4 C 50 % 994,1 hPa - 0,0 km/h - -13,1 C -16,5 C 0,0 km/h
Max-Datum _ 08.02.21 08.02.21 14.02.21 08.02.21 11.02.21 - 08.02.21 08.02.21 11.02.21
_ Max-Zeit 11:15 00:00 08:45 08:45 10:45 - 11:00 11:00 10:45
Maximum _ 3,9 C 84 % 1040,6 hPa 0,3 l/m 18,3 km/h
N
- 1,0 C 3,8 C 38,6 km/h
N
Durchschnitt _ -2,5 C 75 % 1019,0 hPa #2,1 l/m 4,7 km/h N -6,4 C -3,7 C 12,8 km/h